Time;durP1;ratioP1;P1;durP2;ratioP2;P2;SDS_P1;SDS_P2;PMS_P1;PMS_P2;Temp;Humidity;BMP_temperature;BMP_pressure;BME280_temperature;BME280_humidity;BME280_pressure;Samples;Min_cycle;Max_cycle;Signal;HPM_P1;HPM_P2
2022/02/13 01:06:00;;;;;;;;;;;;;;;;;;;;;
2022/02/13 01:09:03;;;;;;;14.52;12.27;;;1.60;99.90;;;;;;4831664;29;20217;-85
2022/02/13 01:29:58;;;;;;;14.90;12.83;;;1.30;99.90;;;;;;4780038;29;20189;-85
2022/02/13 01:36:22;;;;;;;;;;;;;;;;;;;;;
2022/02/13 01:39:10;;;;;;;;;;;;;;;;;;;;;
2022/02/13 01:41:39;;;;;;;13.90;12.45;;;1.30;99.90;;;;;;4817309;29;20230;-86
2022/02/13 01:44:08;;;;;;;17.77;11.88;;;1.40;99.90;;;;;;4885982;29;20208;-85
2022/02/13 01:46:41;;;;;;;17.15;12.15;;;1.40;99.90;;;;;;4964686;29;20207;-85
2022/02/13 01:49:08;;;;;;;14.73;11.40;;;1.60;99.90;;;;;;4945771;29;20580;-85
2022/02/13 01:51:34;;;;;;;14.88;11.80;;;1.60;99.90;;;;;;4945501;29;20597;-85
2022/02/13 01:54:03;;;;;;;13.40;12.00;;;1.60;99.90;;;;;;4945798;29;20613;-85
2022/02/13 01:56:32;;;;;;;14.18;11.50;;;1.60;99.90;;;;;;4947295;29;20222;-85
2022/02/13 01:59:00;;;;;;;14.13;12.00;;;1.70;99.90;;;;;;4973618;28;20250;-88
2022/02/13 02:01:28;;;;;;;16.73;12.50;;;1.70;99.90;;;;;;4955294;28;20211;-86
2022/02/13 02:03:57;;;;;;;16.15;12.40;;;1.70;99.90;;;;;;4945609;29;20198;-85
2022/02/13 02:06:23;;;;;;;18.85;13.15;;;1.70;99.90;;;;;;4956027;29;20221;-85
2022/02/13 02:08:50;;;;;;;14.52;12.80;;;1.70;99.90;;;;;;4950238;29;20202;-86
2022/02/13 02:11:18;;;;;;;14.40;12.88;;;1.70;99.90;;;;;;4947740;29;20222;-88
2022/02/13 02:13:46;;;;;;;12.60;11.38;;;1.70;99.90;;;;;;4943776;28;20199;-88
2022/02/13 02:20:08;;;;;;;;;;;;;;;;;;;;;
2022/02/13 07:03:53;;;;;;;12.30;10.90;;;1.10;99.90;;;;;;4793364;29;20237;-88
2022/02/13 07:06:20;;;;;;;14.10;11.43;;;1.20;99.90;;;;;;4966842;23;20224;-84
2022/02/13 07:08:47;;;;;;;14.15;10.75;;;1.30;99.90;;;;;;4969963;28;20201;-83
2022/02/13 07:11:13;;;;;;;15.50;13.88;;;1.30;99.90;;;;;;4989365;28;20209;-84
2022/02/13 07:13:40;;;;;;;15.90;12.27;;;1.30;99.90;;;;;;4979957;28;20210;-84
2022/02/13 07:16:07;;;;;;;15.13;11.65;;;1.40;99.90;;;;;;4976572;28;20223;-83
2022/02/13 07:18:34;;;;;;;15.25;12.40;;;1.40;99.90;;;;;;4981522;28;20223;-85
2022/02/13 07:21:11;;;;;;;12.55;11.35;;;1.40;99.90;;;;;;4963877;28;20209;-85
2022/02/13 07:23:37;;;;;;;13.48;11.93;;;1.50;99.90;;;;;;4962386;29;20179;-85
2022/02/13 07:26:04;;;;;;;14.88;11.48;;;1.50;99.90;;;;;;4956954;28;20223;-86
2022/02/13 07:31:15;;;;;;;14.30;12.80;;;1.50;99.90;;;;;;4983917;28;20271;-85
2022/02/13 07:33:42;;;;;;;15.57;11.63;;;1.50;99.90;;;;;;4979964;28;20289;-86
2022/02/13 07:36:11;;;;;;;12.30;10.68;;;1.60;99.90;;;;;;4974149;28;20230;-86
2022/02/13 07:38:38;;;;;;;18.00;11.65;;;1.60;99.90;;;;;;4986696;28;20222;-86
2022/02/13 07:41:04;;;;;;;14.50;12.23;;;1.70;99.90;;;;;;4983971;28;20224;-79
2022/02/13 07:43:31;;;;;;;14.07;11.50;;;1.70;99.90;;;;;;4983871;28;20213;-79
2022/02/13 07:45:58;;;;;;;14.45;11.00;;;1.80;99.90;;;;;;4970160;28;20230;-79
2022/02/13 07:48:25;;;;;;;13.10;10.32;;;1.90;99.90;;;;;;4975966;28;20224;-89
2022/02/13 07:50:52;;;;;;;14.80;11.05;;;2.00;99.90;;;;;;4995533;28;20232;-87
2022/02/13 07:53:20;;;;;;;15.57;10.98;;;2.00;99.90;;;;;;4970797;28;20221;-89
2022/02/13 07:55:47;;;;;;;14.73;10.60;;;2.10;99.90;;;;;;4968481;28;20248;-89
2022/02/13 09:52:05;;;;;;;12.48;8.15;;;7.90;90.50;;;;;;5078762;27;1284490;-87
2022/02/13 09:54:32;;;;;;;12.67;8.90;;;9.60;87.10;;;;;;5108313;28;20219;-88
2022/02/13 10:07:18;;;;;;;11.60;9.50;;;10.40;81.50;;;;;;4843161;29;20486;-88
2022/02/13 10:09:44;;;;;;;9.80;8.80;;;10.40;82.00;;;;;;4904295;28;20439;-88
2022/02/13 10:41:18;;;;;;;10.30;9.20;;;15.60;67.10;;;;;;4921456;28;20249;-85
2022/02/13 10:43:58;;;;;;;10.57;9.23;;;16.50;63.00;;;;;;5085267;28;20451;-86
2022/02/13 10:46:26;;;;;;;17.30;10.37;;;16.80;60.40;;;;;;5078322;28;20462;-86
2022/02/13 10:48:53;;;;;;;12.70;10.30;;;17.00;58.60;;;;;;5076943;28;20444;-86
2022/02/13 10:51:22;;;;;;;12.40;9.63;;;17.40;58.90;;;;;;5080341;28;20462;-85
2022/02/13 10:54:14;;;;;;;12.97;9.53;;;18.60;57.00;;;;;;5068036;28;20506;-87
2022/02/13 10:56:46;;;;;;;10.43;9.33;;;19.10;55.50;;;;;;5067217;28;20493;-86
2022/02/13 10:59:16;;;;;;;11.20;9.47;;;19.00;55.30;;;;;;5075530;28;20433;-87
2022/02/13 11:01:47;;;;;;;10.03;9.00;;;19.10;54.40;;;;;;5076400;28;20556;-86
2022/02/13 11:04:16;;;;;;;11.80;9.43;;;19.10;54.50;;;;;;5080258;28;20435;-85
2022/02/13 11:06:43;;;;;;;10.23;9.10;;;19.50;53.60;;;;;;5077235;28;20511;-87
2022/02/13 11:09:16;;;;;;;12.17;9.57;;;19.90;52.90;;;;;;5079884;28;20512;-86
2022/02/13 11:11:51;;;;;;;10.30;9.40;;;20.20;52.20;;;;;;5074320;28;20442;-87
2022/02/13 11:14:37;;;;;;;17.47;9.70;;;20.20;52.10;;;;;;5075515;28;20434;-87
2022/02/13 11:26:39;;;;;;;14.10;9.40;;;20.10;52.00;;;;;;4869639;29;20481;-87
2022/02/13 11:40:45;;;;;;;10.83;8.33;;;21.40;49.40;;;;;;4981884;28;20999;-86
2022/02/13 11:54:52;;;;;;;12.40;9.33;;;22.00;47.20;;;;;;4834780;29;20429;-86
2022/02/13 11:57:20;;;;;;;9.30;8.37;;;22.20;46.30;;;;;;5037498;28;20464;-87
2022/02/13 11:59:51;;;;;;;8.43;7.67;;;22.30;45.90;;;;;;5063421;28;20440;-86
2022/02/13 12:02:18;;;;;;;9.50;8.63;;;20.90;46.30;;;;;;5062775;28;20536;-87
2022/02/13 12:05:16;;;;;;;11.23;9.67;;;20.70;47.00;;;;;;5062052;28;20439;-87
2022/02/13 12:08:01;;;;;;;10.17;8.93;;;20.50;47.90;;;;;;5062902;28;20880;-87
2022/02/13 12:10:31;;;;;;;9.83;8.67;;;21.10;47.50;;;;;;5061614;28;20507;-86
2022/02/13 12:13:13;;;;;;;10.73;8.70;;;21.50;46.40;;;;;;5059246;28;20456;-87
2022/02/13 12:15:49;;;;;;;8.97;8.07;;;20.90;45.80;;;;;;5067472;28;20479;-87
2022/02/13 12:18:16;;;;;;;11.10;8.57;;;21.60;47.20;;;;;;5072452;28;20455;-86
2022/02/13 12:20:44;;;;;;;9.77;8.30;;;22.30;45.70;;;;;;5061861;28;20443;-87
2022/02/13 12:23:15;;;;;;;11.43;8.13;;;22.30;44.70;;;;;;5060611;28;20442;-86
2022/02/13 12:25:46;;;;;;;8.40;7.53;;;22.70;45.10;;;;;;5068527;28;20476;-85
2022/02/13 12:28:15;;;;;;;8.80;7.97;;;23.30;44.60;;;;;;5066715;28;20475;-87
2022/02/13 12:30:50;;;;;;;10.77;9.00;;;24.00;43.10;;;;;;5064098;28;20486;-87
2022/02/13 12:33:18;;;;;;;7.93;7.10;;;22.30;43.10;;;;;;5060832;28;20450;-87
2022/02/13 12:35:46;;;;;;;9.60;8.03;;;21.10;44.20;;;;;;5062547;28;20498;-86
2022/02/13 12:38:14;;;;;;;8.23;5.90;;;20.00;45.80;;;;;;5059699;28;20447;-87
2022/02/13 12:40:44;;;;;;;10.27;9.33;;;20.00;45.20;;;;;;5074652;28;20461;-86
2022/02/13 12:43:16;;;;;;;6.60;5.43;;;19.00;47.60;;;;;;5068972;28;20506;-86
2022/02/13 12:45:43;;;;;;;6.37;5.37;;;18.20;44.90;;;;;;5060818;28;20564;-86
2022/02/13 12:48:14;;;;;;;5.57;4.93;;;16.90;46.40;;;;;;5059037;28;20483;-86
2022/02/13 12:50:43;;;;;;;5.70;4.20;;;16.30;48.30;;;;;;5059459;28;20484;-87
2022/02/13 12:53:11;;;;;;;5.73;4.47;;;15.80;48.50;;;;;;5065600;28;21056;-86
2022/02/13 12:55:39;;;;;;;5.83;4.27;;;16.20;48.80;;;;;;5073682;28;20472;-86
2022/02/13 12:58:09;;;;;;;7.07;4.40;;;15.40;48.30;;;;;;5076077;28;20435;-85
2022/02/13 13:00:43;;;;;;;7.63;4.60;;;15.40;49.40;;;;;;5065470;28;20443;-86
2022/02/13 13:03:13;;;;;;;5.40;4.33;;;15.80;48.70;;;;;;5061170;28;20450;-86
